createdAt,value
2019-03-20T00:00:09.916Z,4.40
2019-03-20T00:02:39.256Z,4.40
2019-03-20T00:05:08.444Z,4.40
2019-03-20T00:07:37.606Z,4.40
2019-03-20T00:10:08.188Z,4.40
2019-03-20T00:12:37.257Z,4.40
2019-03-20T00:15:07.130Z,4.40
2019-03-20T00:17:36.370Z,4.30
2019-03-20T00:20:06.171Z,4.40
2019-03-20T00:22:35.422Z,4.40
2019-03-20T00:25:04.742Z,4.40
2019-03-20T00:30:45.303Z,4.30
2019-03-20T00:33:14.578Z,4.30
2019-03-20T00:35:43.803Z,4.20
2019-03-20T00:38:13.105Z,4.20
2019-03-20T00:40:42.235Z,4.20
2019-03-20T00:43:11.654Z,4.20
2019-03-20T00:45:40.836Z,4.10
2019-03-20T00:48:10.053Z,4.10
2019-03-20T00:50:39.144Z,4.10
2019-03-20T00:53:08.365Z,4.10
2019-03-20T00:55:37.743Z,4.10
2019-03-20T00:58:07.225Z,4.10
2019-03-20T01:00:38.239Z,4.10
2019-03-20T01:03:07.638Z,4.00
2019-03-20T01:05:36.847Z,4.00
2019-03-20T01:08:06.147Z,4.00
2019-03-20T01:10:35.468Z,3.90
2019-03-20T01:13:04.691Z,3.90
2019-03-20T01:15:33.637Z,3.90
2019-03-20T01:18:02.726Z,3.90
2019-03-20T01:20:31.851Z,3.90
2019-03-20T01:23:00.943Z,3.90
2019-03-20T01:25:30.060Z,3.90
2019-03-20T01:27:59.245Z,3.90
2019-03-20T01:30:32.233Z,3.80
2019-03-20T01:33:02.740Z,3.90
2019-03-20T01:35:31.902Z,3.90
2019-03-20T01:38:01.106Z,3.90
2019-03-20T01:40:30.340Z,3.80
2019-03-20T01:42:59.646Z,3.80
2019-03-20T01:45:28.869Z,3.80
2019-03-20T01:47:59.191Z,3.80
2019-03-20T01:50:28.323Z,3.80
2019-03-20T01:52:57.430Z,3.80
2019-03-20T01:55:26.639Z,3.80
2019-03-20T01:57:55.907Z,3.80
2019-03-20T02:00:25.320Z,3.80
2019-03-20T02:02:54.579Z,3.80
2019-03-20T02:05:34.723Z,3.80
2019-03-20T02:07:54.672Z,3.80
2019-03-20T02:10:23.786Z,3.80
2019-03-20T02:12:52.942Z,3.80
2019-03-20T02:15:22.038Z,3.80
2019-03-20T02:17:51.106Z,3.70
2019-03-20T02:20:20.587Z,3.70
2019-03-20T02:22:50.000Z,3.70
2019-03-20T02:25:19.299Z,3.60
2019-03-20T02:27:48.449Z,3.60
2019-03-20T02:30:18.068Z,3.60
2019-03-20T02:32:47.231Z,3.50
2019-03-20T02:35:16.349Z,3.60
2019-03-20T02:37:45.494Z,3.60
2019-03-20T02:40:15.068Z,3.50
2019-03-20T02:42:44.287Z,3.50
2019-03-20T02:45:14.656Z,3.50
2019-03-20T02:47:43.983Z,3.50
2019-03-20T02:50:13.200Z,3.50
2019-03-20T02:52:42.342Z,3.50
2019-03-20T02:55:11.425Z,3.50
2019-03-20T02:57:40.631Z,3.50
2019-03-20T03:00:11.947Z,3.50
2019-03-20T03:02:41.316Z,3.40
2019-03-20T03:05:10.759Z,3.40
2019-03-20T03:07:39.929Z,3.40
2019-03-20T03:10:10.236Z,3.40
2019-03-20T03:12:39.355Z,3.30
2019-03-20T03:15:08.863Z,3.30
2019-03-20T03:17:38.076Z,3.30
2019-03-20T03:20:07.425Z,3.30
2019-03-20T03:22:36.508Z,3.30
2019-03-20T03:25:06.310Z,3.40
2019-03-20T03:27:35.533Z,3.40
2019-03-20T03:30:05.064Z,3.30
2019-03-20T03:32:34.205Z,3.30
2019-03-20T03:35:03.306Z,3.30
2019-03-20T03:37:32.420Z,3.30
2019-03-20T03:40:01.555Z,3.30
2019-03-20T03:42:30.689Z,3.30
2019-03-20T03:44:59.813Z,3.30
2019-03-20T03:47:29.011Z,3.40
2019-03-20T03:49:58.100Z,3.30
2019-03-20T03:52:27.254Z,3.30
2019-03-20T03:54:56.356Z,3.30
2019-03-20T03:57:25.902Z,3.30
2019-03-20T03:59:55.000Z,3.30
2019-03-20T04:02:23.980Z,3.40
2019-03-20T04:04:53.059Z,3.40
2019-03-20T04:07:23.680Z,3.40
2019-03-20T04:09:53.089Z,3.30
2019-03-20T04:12:22.229Z,3.30
2019-03-20T04:14:51.451Z,3.30
2019-03-20T04:17:29.783Z,3.30
2019-03-20T04:19:58.872Z,3.20
2019-03-20T04:22:27.951Z,3.20
2019-03-20T04:24:57.358Z,3.20
2019-03-20T04:27:26.551Z,3.10
2019-03-20T04:29:55.723Z,3.10
2019-03-20T04:32:24.763Z,3.10
2019-03-20T04:34:54.011Z,3.10
2019-03-20T04:37:23.141Z,3.10
2019-03-20T04:39:52.267Z,3.00
2019-03-20T04:42:21.567Z,3.00
2019-03-20T04:44:50.740Z,3.00
2019-03-20T04:47:20.133Z,3.00
2019-03-20T04:49:49.288Z,3.00
2019-03-20T04:52:21.517Z,3.00
2019-03-20T04:54:50.648Z,3.00
2019-03-20T04:57:19.856Z,3.00
2019-03-20T04:59:48.913Z,3.00
2019-03-20T05:02:20.416Z,3.00
2019-03-20T05:04:49.602Z,3.00
2019-03-20T05:07:18.752Z,2.90
2019-03-20T05:09:47.940Z,2.80
2019-03-20T05:12:18.236Z,2.80
2019-03-20T05:14:47.180Z,2.70
2019-03-20T05:17:16.323Z,2.70
2019-03-20T05:19:45.416Z,2.70
2019-03-20T05:22:23.660Z,2.70
2019-03-20T05:24:52.958Z,2.70
2019-03-20T05:27:22.267Z,2.70
2019-03-20T05:29:51.386Z,2.70
2019-03-20T05:32:20.503Z,2.60
2019-03-20T05:34:49.594Z,2.70
2019-03-20T05:37:18.551Z,2.70
2019-03-20T05:39:47.618Z,2.70
2019-03-20T05:42:16.843Z,2.80
2019-03-20T05:44:45.913Z,2.80
2019-03-20T05:47:14.982Z,2.80
2019-03-20T05:49:43.977Z,2.80
2019-03-20T05:52:12.990Z,2.90
2019-03-20T05:54:42.032Z,2.90
2019-03-20T05:57:12.626Z,3.00
2019-03-20T05:59:41.873Z,3.10
2019-03-20T06:02:10.888Z,3.10
2019-03-20T06:04:39.973Z,3.10
2019-03-20T06:07:09.128Z,3.20
2019-03-20T06:09:38.148Z,3.30
2019-03-20T06:12:07.344Z,3.30
2019-03-20T06:14:36.396Z,3.40
2019-03-20T06:17:05.701Z,3.50
2019-03-20T06:19:34.761Z,3.60
2019-03-20T06:22:03.936Z,3.60
2019-03-20T06:24:33.021Z,3.70
2019-03-20T06:27:03.307Z,3.80
2019-03-20T06:29:32.541Z,3.80
2019-03-20T06:32:01.636Z,3.90
2019-03-20T06:34:30.799Z,4.00
2019-03-20T06:36:59.866Z,4.00
2019-03-20T06:39:28.981Z,4.10
2019-03-20T06:41:58.076Z,4.20
2019-03-20T06:44:29.326Z,4.20
2019-03-20T06:46:59.874Z,4.30
2019-03-20T06:49:28.984Z,4.40
2019-03-20T06:51:58.282Z,4.50
2019-03-20T06:54:27.600Z,4.60
2019-03-20T06:56:56.931Z,4.70
2019-03-20T07:00:10.901Z,4.80
2019-03-20T07:02:43.215Z,4.90
2019-03-20T07:05:30.756Z,5.00
2019-03-20T07:08:00.180Z,5.00
2019-03-20T07:11:10.336Z,5.10
2019-03-20T07:13:39.802Z,5.20
2019-03-20T07:16:09.174Z,5.30
2019-03-20T07:18:38.884Z,5.40
2019-03-20T07:21:08.280Z,5.50
2019-03-20T07:23:38.796Z,5.60
2019-03-20T07:26:08.069Z,5.70
2019-03-20T07:28:37.079Z,5.80
2019-03-20T07:31:14.801Z,5.90
2019-03-20T07:33:37.215Z,5.90
2019-03-20T07:36:06.379Z,5.90
2019-03-20T07:38:35.494Z,6.00
2019-03-20T07:41:04.877Z,6.10
2019-03-20T07:43:34.072Z,6.10
2019-03-20T07:46:03.234Z,6.20
2019-03-20T07:48:32.630Z,6.30
2019-03-20T07:51:02.207Z,6.40
2019-03-20T07:53:32.145Z,6.40
2019-03-20T07:56:01.325Z,6.60
2019-03-20T07:58:30.489Z,6.60
2019-03-20T08:01:02.591Z,6.80
2019-03-20T08:03:31.685Z,6.80
2019-03-20T08:06:00.870Z,6.90
2019-03-20T08:08:29.941Z,7.00
2019-03-20T08:10:59.016Z,7.20
2019-03-20T08:13:28.089Z,7.40
2019-03-20T08:15:57.288Z,7.50
2019-03-20T08:18:26.564Z,7.50
2019-03-20T08:20:55.755Z,7.60
2019-03-20T08:23:24.957Z,7.80
2019-03-20T08:25:54.088Z,7.90
2019-03-20T08:28:23.129Z,7.90
2019-03-20T08:30:52.489Z,8.00
2019-03-20T08:33:21.539Z,8.00
2019-03-20T08:35:50.886Z,8.10
2019-03-20T08:38:21.725Z,8.10
2019-03-20T08:40:50.932Z,8.30
2019-03-20T08:43:20.231Z,8.40
2019-03-20T08:45:49.429Z,8.50
2019-03-20T08:48:18.639Z,8.80
2019-03-20T08:50:47.852Z,8.90
2019-03-20T08:53:17.008Z,9.10
2019-03-20T08:55:46.152Z,9.30
2019-03-20T08:58:15.472Z,9.40
2019-03-20T09:00:44.724Z,9.30
2019-03-20T09:03:13.871Z,9.10
2019-03-20T09:05:42.938Z,9.20
2019-03-20T09:08:13.629Z,9.20
2019-03-20T09:10:42.689Z,9.30
2019-03-20T09:13:11.828Z,9.40
2019-03-20T09:15:40.958Z,9.50
2019-03-20T09:18:13.139Z,9.20
2019-03-20T09:20:42.304Z,9.30
2019-03-20T09:23:11.491Z,9.40
2019-03-20T09:25:40.639Z,9.70
2019-03-20T09:28:09.812Z,9.60
2019-03-20T09:30:38.970Z,9.60
2019-03-20T09:33:07.973Z,9.70
2019-03-20T09:35:37.201Z,9.80
2019-03-20T09:38:06.496Z,9.90
2019-03-20T09:40:35.604Z,9.90
2019-03-20T09:43:04.841Z,10.10
2019-03-20T09:45:34.086Z,10.20
2019-03-20T09:48:03.279Z,10.30
2019-03-20T09:50:32.386Z,10.50
2019-03-20T09:53:01.402Z,10.50
2019-03-20T09:55:30.521Z,10.60
2019-03-20T09:57:59.662Z,10.60
2019-03-20T10:00:28.837Z,10.70
2019-03-20T10:03:00.705Z,10.80
2019-03-20T10:05:29.849Z,10.80
2019-03-20T10:07:58.989Z,10.80
2019-03-20T10:10:28.489Z,10.90
2019-03-20T10:12:58.123Z,10.90
2019-03-20T10:15:27.508Z,11.00
2019-03-20T10:17:57.157Z,11.00
2019-03-20T10:20:26.318Z,10.80
2019-03-20T10:22:55.451Z,10.90
2019-03-20T10:25:24.688Z,10.80
2019-03-20T10:27:53.839Z,10.80
2019-03-20T10:30:23.249Z,10.70
2019-03-20T10:32:52.600Z,10.70
2019-03-20T10:35:21.901Z,10.80
2019-03-20T10:37:51.257Z,10.80
2019-03-20T10:40:20.983Z,10.80
2019-03-20T10:42:50.219Z,10.90
2019-03-20T10:45:20.325Z,10.80
2019-03-20T10:47:49.506Z,11.00
2019-03-20T10:50:21.446Z,11.00
2019-03-20T10:52:52.125Z,11.20
2019-03-20T10:55:21.268Z,11.20
2019-03-20T10:57:50.591Z,11.40
2019-03-20T11:00:21.060Z,11.50
2019-03-20T11:02:50.524Z,11.60
2019-03-20T11:05:20.359Z,11.60
2019-03-20T11:07:49.864Z,11.50
2019-03-20T11:10:21.131Z,11.40
2019-03-20T11:12:50.496Z,11.30
2019-03-20T11:15:19.957Z,11.30
2019-03-20T11:17:49.293Z,11.40
2019-03-20T11:20:18.613Z,11.50
2019-03-20T11:22:47.848Z,11.60
2019-03-20T11:25:18.298Z,11.70
2019-03-20T11:27:47.585Z,11.90
2019-03-20T11:30:21.757Z,11.90
2019-03-20T11:32:51.032Z,11.80
2019-03-20T11:35:20.482Z,11.80
2019-03-20T11:37:49.728Z,11.90
2019-03-20T11:40:21.188Z,12.20
2019-03-20T11:42:50.349Z,12.30
2019-03-20T11:45:19.579Z,12.40
2019-03-20T11:47:51.815Z,12.30
2019-03-20T11:50:32.249Z,12.30
2019-03-20T11:53:03.339Z,12.30
2019-03-20T11:55:32.618Z,12.30
2019-03-20T11:58:01.899Z,12.20
2019-03-20T12:00:31.382Z,12.60
2019-03-20T12:03:00.630Z,12.70
2019-03-20T12:05:29.781Z,12.80
2019-03-20T12:07:58.920Z,12.80
2019-03-20T12:10:28.136Z,12.70
2019-03-20T12:12:57.309Z,12.50
2019-03-20T12:15:26.503Z,12.50
2019-03-20T12:17:55.697Z,12.60
2019-03-20T12:20:25.172Z,12.70
2019-03-20T12:22:54.488Z,12.80
2019-03-20T12:25:25.784Z,12.80
2019-03-20T12:27:54.998Z,12.80
2019-03-20T12:30:26.112Z,12.90
2019-03-20T12:32:55.423Z,13.00
2019-03-20T12:35:25.637Z,12.80
2019-03-20T12:37:54.888Z,12.80
2019-03-20T12:40:28.360Z,13.00
2019-03-20T12:42:57.691Z,13.10
2019-03-20T12:45:31.651Z,13.10
2019-03-20T12:48:01.234Z,13.20
2019-03-20T12:50:30.692Z,13.20
2019-03-20T12:53:01.793Z,13.30
2019-03-20T12:55:31.315Z,13.80
2019-03-20T12:58:00.628Z,14.20
2019-03-20T13:00:29.797Z,14.40
2019-03-20T13:02:58.840Z,14.20
2019-03-20T13:05:28.286Z,14.40
2019-03-20T13:08:05.328Z,14.40
2019-03-20T13:10:28.384Z,14.60
2019-03-20T13:12:57.756Z,14.60
2019-03-20T13:15:27.297Z,14.30
2019-03-20T13:17:56.905Z,14.40
2019-03-20T13:20:26.288Z,14.70
2019-03-20T13:23:07.705Z,14.40
2019-03-20T13:25:37.410Z,13.70
2019-03-20T13:28:06.890Z,13.60
2019-03-20T13:30:49.136Z,13.70
2019-03-20T13:33:25.598Z,13.80
2019-03-20T13:35:52.327Z,13.60
2019-03-20T13:38:21.624Z,13.60
2019-03-20T13:40:52.710Z,13.50
2019-03-20T13:43:21.854Z,14.10
2019-03-20T13:45:51.045Z,14.90
2019-03-20T13:48:20.359Z,15.60
2019-03-20T13:50:49.971Z,16.10
2019-03-20T13:53:19.063Z,16.10
2019-03-20T13:55:48.327Z,16.30
2019-03-20T13:58:17.538Z,16.30
2019-03-20T14:00:46.656Z,15.90
2019-03-20T21:53:18.445Z,16.60
2019-03-20T21:56:17.264Z,11.40
2019-03-20T21:58:56.030Z,11.20
2019-03-20T22:01:50.284Z,11.30
2019-03-20T22:04:20.194Z,11.30
2019-03-20T22:07:08.037Z,11.20
2019-03-20T22:10:16.198Z,11.10
2019-03-20T22:13:28.880Z,11.10
2019-03-20T22:16:51.403Z,11.10
2019-03-20T22:19:51.708Z,11.10
2019-03-20T22:23:02.582Z,11.00
2019-03-20T22:26:04.581Z,11.10
2019-03-20T22:29:16.712Z,11.00
2019-03-20T22:32:07.287Z,11.00
2019-03-20T22:34:58.389Z,10.90
2019-03-20T22:37:28.080Z,10.80
2019-03-20T22:40:56.805Z,10.70
2019-03-20T22:43:34.680Z,10.70
2019-03-20T22:46:40.058Z,10.70
2019-03-20T22:49:38.031Z,10.70
2019-03-20T22:52:23.774Z,10.60
2019-03-20T22:55:21.171Z,10.60
2019-03-20T22:58:27.873Z,10.50
2019-03-20T23:00:57.612Z,10.50
2019-03-20T23:03:31.625Z,10.50
2019-03-20T23:06:01.235Z,10.40
2019-03-20T23:08:33.013Z,10.40
2019-03-20T23:11:02.817Z,10.40
2019-03-20T23:13:40.962Z,10.40
2019-03-20T23:16:04.552Z,10.40
2019-03-20T23:18:34.395Z,10.40
2019-03-20T23:21:04.033Z,10.40
2019-03-20T23:23:34.595Z,10.40
2019-03-20T23:26:04.322Z,10.40
2019-03-20T23:28:34.095Z,10.30
2019-03-20T23:31:03.717Z,10.30
2019-03-20T23:33:33.443Z,10.30
2019-03-20T23:36:03.004Z,10.40
2019-03-20T23:38:32.577Z,10.40
2019-03-20T23:41:02.362Z,10.40
2019-03-20T23:43:32.113Z,10.40
2019-03-20T23:46:01.749Z,10.40
2019-03-20T23:48:38.993Z,10.40
2019-03-20T23:51:11.741Z,10.40
2019-03-20T23:53:45.442Z,10.30
2019-03-20T23:56:15.153Z,10.40
2019-03-20T23:58:44.833Z,10.30
